Главная страница
METAR-TAF:

METAR-TAF

Аэропорты :

Lycksele, Швеция

широта: 64-32-51N, долгота: 018-43-03E, высота над уровнем моря: 211 м

Текущие метеонаблюдения

Эта сводка был подготовлена 37 минут назад, в 07:50 UTC
Штиль
Температура -6°C
Влажность 93%
Давление 1015 hPa
Видимость: 2000 м
небольшой снег

METAR: ESNL 170750Z AUTO 00000KT 2000 -SN FEW009/// SCT011/// M06/M07 Q1015

Время: 09:27 (08:27 UTC)


TAF: отсутствует

Метеонаблюдения и прогнозы для более 4000 аэропортов (сводки METAR и TAF).

Имеющиеся станции представлены на карте желтыми и красными точками.

Чтобы увидеть название станции, наведите на нее мышь.

Затем щелкните, чтобы увидеть метеонаблюдения и метеопрогнозы.

Управление картой: чтобы увеличить масштаб, щелкните зеленые кнопки с черным крестиком; чтобы уменьшить масштаб, щелкните зеленую кнопку с тире; для просмотра соседних карт щелкайте зеленые стрелки.


METAR-TAF: